createdAt,value
2023-11-30T00:01:54.077Z,101008.05
2023-11-30T00:04:22.904Z,101008.54
2023-11-30T00:06:51.449Z,101007.98
2023-11-30T00:09:19.746Z,101007.43
2023-11-30T00:11:48.225Z,101012.81
2023-11-30T00:14:16.382Z,101015.52
2023-11-30T00:16:44.644Z,101018.61
2023-11-30T00:19:12.702Z,101025.59
2023-11-30T00:21:40.889Z,101032.70
2023-11-30T00:24:08.950Z,101031.92
2023-11-30T00:26:37.151Z,101033.43
2023-11-30T00:29:06.541Z,101037.70
2023-11-30T00:31:34.690Z,101038.96
2023-11-30T00:34:02.851Z,101042.93
2023-11-30T00:36:31.133Z,101037.23
2023-11-30T00:38:59.411Z,101040.42
2023-11-30T00:41:27.647Z,101038.20
2023-11-30T00:43:56.040Z,101042.42
2023-11-30T00:46:24.796Z,101043.33
2023-11-30T00:48:53.280Z,101045.09
2023-11-30T00:51:21.458Z,101046.11
2023-11-30T00:53:49.799Z,101047.83
2023-11-30T00:56:18.139Z,101050.44
2023-11-30T00:58:46.674Z,101056.03
2023-11-30T01:01:14.810Z,101056.11
2023-11-30T01:03:42.943Z,101054.33
2023-11-30T01:06:11.320Z,101057.61
2023-11-30T01:08:39.515Z,101057.79
2023-11-30T01:11:07.873Z,101052.38
2023-11-30T01:13:35.921Z,101056.14
2023-11-30T01:16:04.966Z,101059.14
2023-11-30T01:18:33.910Z,101057.89
2023-11-30T01:21:02.464Z,101058.23
2023-11-30T01:23:30.641Z,101062.39
2023-11-30T01:25:58.907Z,101066.56
2023-11-30T01:28:27.156Z,101061.95
2023-11-30T01:30:56.040Z,101059.84
2023-11-30T01:33:24.181Z,101071.50
2023-11-30T01:35:52.769Z,101072.67
2023-11-30T01:38:21.663Z,101071.39
2023-11-30T01:40:49.927Z,101070.81
2023-11-30T01:43:19.596Z,101072.70
2023-11-30T01:45:50.344Z,101073.23
2023-11-30T01:48:22.147Z,101081.46
2023-11-30T01:50:50.732Z,101087.80
2023-11-30T01:53:19.240Z,101089.92
2023-11-30T01:55:49.087Z,101088.08
2023-11-30T01:58:18.051Z,101091.80
2023-11-30T02:00:46.165Z,101097.60
2023-11-30T02:03:14.760Z,101100.27
2023-11-30T02:05:43.575Z,101100.09
2023-11-30T02:08:11.999Z,101099.73
2023-11-30T02:10:40.494Z,101107.55
2023-11-30T02:13:09.253Z,101110.98
2023-11-30T02:15:37.495Z,101108.84
2023-11-30T02:18:05.845Z,101110.83
2023-11-30T02:20:34.016Z,101103.05
2023-11-30T02:23:02.303Z,101109.10
2023-11-30T02:25:30.317Z,101115.33
2023-11-30T02:28:00.072Z,101126.80
2023-11-30T02:30:28.358Z,101130.90
2023-11-30T02:32:56.861Z,101134.45
2023-11-30T02:35:25.790Z,101133.98
2023-11-30T02:37:54.169Z,101128.07
2023-11-30T02:40:22.429Z,101126.22
2023-11-30T02:42:50.493Z,101125.05
2023-11-30T02:45:18.825Z,101126.65
2023-11-30T02:47:47.313Z,101127.22
2023-11-30T02:50:15.889Z,101123.42
2023-11-30T02:52:44.533Z,101116.64
2023-11-30T02:55:12.571Z,101117.21
2023-11-30T02:57:41.693Z,101121.27
2023-11-30T03:00:10.781Z,101123.80
2023-11-30T03:02:38.857Z,101127.87
2023-11-30T03:05:07.318Z,101132.44
2023-11-30T03:07:35.482Z,101131.40
2023-11-30T03:10:04.276Z,101137.52
2023-11-30T03:12:32.458Z,101138.40
2023-11-30T03:15:00.904Z,101143.80
2023-11-30T03:17:29.369Z,101146.05
2023-11-30T03:19:57.768Z,101138.13
2023-11-30T03:22:25.831Z,101130.03
2023-11-30T03:24:53.994Z,101135.20
2023-11-30T03:27:23.773Z,101131.33
2023-11-30T03:29:52.202Z,101135.95
2023-11-30T03:32:20.531Z,101132.05
2023-11-30T03:34:49.357Z,101130.61
2023-11-30T03:37:17.640Z,101129.81
2023-11-30T03:39:45.965Z,101133.59
2023-11-30T03:42:14.197Z,101134.59
2023-11-30T03:44:42.667Z,101137.02
2023-11-30T03:47:11.015Z,101139.05
2023-11-30T03:49:39.196Z,101139.70
2023-11-30T03:52:07.711Z,101142.17
2023-11-30T03:54:36.116Z,101146.05
2023-11-30T03:59:33.088Z,101148.48
2023-11-30T04:02:01.217Z,101155.07
2023-11-30T04:04:30.564Z,101152.06
2023-11-30T04:06:59.116Z,101154.94
2023-11-30T04:09:27.373Z,101154.50
2023-11-30T04:11:56.067Z,101150.07
2023-11-30T04:14:24.116Z,101155.44
2023-11-30T04:16:52.470Z,101159.08
2023-11-30T04:19:20.570Z,101161.45
2023-11-30T04:21:49.103Z,101158.94
2023-11-30T04:24:17.515Z,101157.64
2023-11-30T04:26:46.036Z,101158.65
2023-11-30T04:29:14.030Z,101165.08
2023-11-30T04:31:42.330Z,101167.10
2023-11-30T04:34:11.120Z,101158.61
2023-11-30T04:36:39.125Z,101163.92
2023-11-30T04:39:07.567Z,101160.50
2023-11-30T04:41:36.527Z,101159.66
2023-11-30T04:44:05.779Z,101163.39
2023-11-30T04:46:35.015Z,101169.19
2023-11-30T04:49:03.110Z,101171.17
2023-11-30T04:51:31.704Z,101174.69
2023-11-30T04:54:00.195Z,101175.95
2023-11-30T04:56:28.847Z,101177.04
2023-11-30T04:58:57.046Z,101176.21
2023-11-30T05:01:25.501Z,101181.31
2023-11-30T05:03:54.417Z,101185.01
2023-11-30T05:06:22.794Z,101183.44
2023-11-30T05:08:51.233Z,101179.27
2023-11-30T05:11:19.635Z,101188.38
2023-11-30T05:13:47.890Z,101196.12
2023-11-30T05:16:16.152Z,101189.52
2023-11-30T05:18:44.473Z,101190.80
2023-11-30T05:21:12.744Z,101192.75
2023-11-30T05:23:40.882Z,101191.20
2023-11-30T05:26:08.880Z,101186.14
2023-11-30T05:28:37.156Z,101188.98
2023-11-30T05:31:06.070Z,101189.98
2023-11-30T05:33:34.239Z,101195.33
2023-11-30T05:36:02.770Z,101198.77
2023-11-30T05:38:30.759Z,101192.35
2023-11-30T05:40:58.988Z,101195.52
2023-11-30T05:43:27.121Z,101202.05
2023-11-30T05:45:55.292Z,101209.44
2023-11-30T05:48:23.686Z,101214.89
2023-11-30T05:50:51.984Z,101214.46
2023-11-30T05:53:20.167Z,101218.44
2023-11-30T05:55:48.288Z,101221.90
2023-11-30T05:58:16.477Z,101227.44
2023-11-30T06:00:44.984Z,101231.52
2023-11-30T06:03:13.412Z,101231.21
2023-11-30T06:05:41.744Z,101236.70
2023-11-30T06:08:09.977Z,101235.68
2023-11-30T06:10:39.178Z,101236.94
2023-11-30T06:13:09.110Z,101248.88
2023-11-30T06:15:37.721Z,101245.35
2023-11-30T06:18:06.156Z,101246.70
2023-11-30T06:20:34.438Z,101245.73
2023-11-30T06:23:02.833Z,101251.86
2023-11-30T06:25:31.071Z,101249.95
2023-11-30T06:27:59.341Z,101256.58
2023-11-30T06:30:27.701Z,101260.45
2023-11-30T06:32:55.996Z,101266.92
2023-11-30T06:35:24.401Z,101265.66
2023-11-30T06:37:52.661Z,101274.73
2023-11-30T06:40:20.891Z,101270.14
2023-11-30T06:42:49.196Z,101267.77
2023-11-30T06:45:17.868Z,101262.98
2023-11-30T06:47:46.418Z,101260.50
2023-11-30T06:50:14.840Z,101269.36
2023-11-30T06:52:43.174Z,101271.57
2023-11-30T06:55:11.274Z,101275.84
2023-11-30T06:57:39.930Z,101281.70
2023-11-30T07:00:12.508Z,101285.23
2023-11-30T07:02:41.139Z,101287.18
2023-11-30T07:05:09.582Z,101286.52
2023-11-30T07:07:37.935Z,101283.74
2023-11-30T07:10:08.464Z,101286.74
2023-11-30T07:12:36.902Z,101288.50
2023-11-30T07:15:06.270Z,101291.65
2023-11-30T07:17:34.815Z,101288.30
2023-11-30T07:20:03.034Z,101285.67
2023-11-30T07:22:31.715Z,101270.05
2023-11-30T07:24:59.990Z,101257.42
2023-11-30T07:27:28.261Z,101268.42
2023-11-30T07:29:56.801Z,101262.27
2023-11-30T07:32:25.173Z,101256.96
2023-11-30T07:34:53.920Z,101256.35
2023-11-30T07:37:23.392Z,101253.08
2023-11-30T07:39:51.515Z,101255.02
2023-11-30T07:42:29.329Z,101251.10
2023-11-30T07:45:04.083Z,101250.34
2023-11-30T07:47:32.563Z,101249.08
2023-11-30T07:50:00.899Z,101247.79
2023-11-30T07:52:30.364Z,101243.68
2023-11-30T07:54:58.711Z,101244.79
2023-11-30T07:57:27.052Z,101237.80
2023-11-30T07:59:55.346Z,101237.01
2023-11-30T08:02:23.536Z,101237.83
2023-11-30T08:04:51.848Z,101239.54
2023-11-30T08:07:20.878Z,101237.16
2023-11-30T08:09:48.973Z,101234.25
2023-11-30T08:12:17.188Z,101232.47
2023-11-30T08:14:45.752Z,101234.21
2023-11-30T08:17:13.956Z,101236.23
2023-11-30T08:19:42.237Z,101233.41
2023-11-30T08:22:12.481Z,101230.64
2023-11-30T08:24:42.317Z,101227.86
2023-11-30T08:27:10.328Z,101228.64
2023-11-30T08:29:38.312Z,101233.28
2023-11-30T08:32:06.981Z,101234.03
2023-11-30T08:34:35.356Z,101233.45
2023-11-30T08:37:03.717Z,101228.63
2023-11-30T08:39:32.198Z,101229.52
2023-11-30T08:42:00.242Z,101220.99
2023-11-30T08:44:28.624Z,101209.88
2023-11-30T08:46:57.167Z,101207.39
2023-11-30T08:49:25.534Z,101203.95
2023-11-30T08:51:54.303Z,101195.83
2023-11-30T08:54:22.668Z,101195.61
2023-11-30T08:56:51.385Z,101196.94
2023-11-30T08:59:20.352Z,101183.07
2023-11-30T09:01:50.066Z,101176.33
2023-11-30T09:04:19.027Z,101170.69
2023-11-30T09:06:47.181Z,101167.60
2023-11-30T09:09:15.638Z,101161.46
2023-11-30T09:11:46.018Z,101160.14
2023-11-30T09:14:16.623Z,101159.70
2023-11-30T09:16:44.637Z,101157.61
2023-11-30T09:19:12.887Z,101160.30
2023-11-30T09:21:41.255Z,101155.88
2023-11-30T09:24:11.278Z,101151.06
2023-11-30T09:26:40.423Z,101156.05
2023-11-30T09:29:10.071Z,101157.95
2023-11-30T09:31:44.938Z,101158.60
2023-11-30T09:34:13.332Z,101163.55
2023-11-30T09:36:41.865Z,101167.27
2023-11-30T09:39:10.348Z,101175.44
2023-11-30T09:41:41.507Z,101182.16
2023-11-30T09:44:13.381Z,101180.09
2023-11-30T09:46:42.454Z,101175.25
2023-11-30T09:49:11.296Z,101164.81
2023-11-30T09:51:42.862Z,101168.77
2023-11-30T09:54:11.257Z,101177.73
2023-11-30T09:56:39.631Z,101164.48
2023-11-30T09:59:08.103Z,101157.03
2023-11-30T10:01:36.671Z,101162.30
2023-11-30T10:04:18.334Z,101162.91
2023-11-30T10:06:49.703Z,101143.03
2023-11-30T10:09:17.995Z,101137.15
2023-11-30T10:11:46.183Z,101135.91
2023-11-30T10:14:14.302Z,101134.57
2023-11-30T10:16:42.616Z,101122.22
2023-11-30T10:19:14.543Z,101124.70
2023-11-30T10:21:43.338Z,101124.95
2023-11-30T10:24:11.511Z,101116.95
2023-11-30T10:26:44.700Z,101114.93
2023-11-30T10:29:16.993Z,101112.84
2023-11-30T10:31:48.513Z,101107.98
2023-11-30T10:34:23.015Z,101108.02
2023-11-30T10:36:52.589Z,101104.10
2023-11-30T10:39:24.602Z,101098.85
2023-11-30T10:41:56.186Z,101100.16
2023-11-30T10:44:30.346Z,101089.38
2023-11-30T10:47:00.797Z,101088.54
2023-11-30T10:49:30.223Z,101080.86
2023-11-30T10:52:03.794Z,101075.85
2023-11-30T10:54:50.979Z,101077.98
2023-11-30T10:57:22.453Z,101076.00
2023-11-30T10:59:59.010Z,101069.91
2023-11-30T11:02:39.182Z,101067.38
2023-11-30T11:05:14.942Z,101057.36
2023-11-30T11:07:47.356Z,101054.67
2023-11-30T11:10:46.745Z,101046.93
2023-11-30T11:13:23.418Z,101043.77
2023-11-30T11:16:02.316Z,101032.00
2023-11-30T11:18:34.551Z,101021.98
2023-11-30T11:21:03.202Z,101025.98
2023-11-30T11:23:42.727Z,101023.70
2023-11-30T11:26:14.928Z,101025.78
2023-11-30T11:28:43.082Z,101030.17
2023-11-30T11:31:12.211Z,101043.80
2023-11-30T11:33:44.172Z,101051.27
2023-11-30T11:36:15.234Z,101054.00
2023-11-30T11:38:43.888Z,101045.45
2023-11-30T11:41:12.035Z,101049.19
2023-11-30T11:43:40.418Z,101053.88
2023-11-30T11:46:08.656Z,101050.52
2023-11-30T11:48:37.255Z,101043.95
2023-11-30T11:51:05.931Z,101040.66
2023-11-30T11:53:42.647Z,101037.13
2023-11-30T11:56:12.368Z,101043.80
2023-11-30T11:58:46.770Z,101042.52
2023-11-30T12:01:15.083Z,101037.40
2023-11-30T12:03:49.261Z,101047.13
2023-11-30T12:06:28.930Z,101052.07
2023-11-30T12:08:57.565Z,101057.81
2023-11-30T12:11:27.127Z,101067.13
2023-11-30T12:13:55.799Z,101069.94
2023-11-30T12:16:24.168Z,101072.68
2023-11-30T12:18:52.650Z,101078.54
2023-11-30T12:21:22.881Z,101075.46
2023-11-30T12:23:51.247Z,101065.42
2023-11-30T12:26:19.410Z,101056.85
2023-11-30T12:28:47.882Z,101058.95
2023-11-30T12:31:16.479Z,101062.09
2023-11-30T12:33:44.987Z,101055.84
2023-11-30T12:36:15.370Z,101045.77
2023-11-30T12:38:43.795Z,101041.19
2023-11-30T12:41:12.102Z,101038.83
2023-11-30T12:43:40.260Z,101027.48
2023-11-30T12:46:10.650Z,101021.73
2023-11-30T12:48:39.339Z,101016.59
2023-11-30T12:51:10.597Z,101013.89
2023-11-30T12:53:39.940Z,101015.14
2023-11-30T12:56:08.648Z,101016.83
2023-11-30T12:58:37.490Z,101022.36
2023-11-30T13:01:06.409Z,101016.29
2023-11-30T13:03:35.102Z,101009.14
2023-11-30T13:06:04.893Z,101003.71
2023-11-30T13:08:33.387Z,101000.45
2023-11-30T13:11:01.727Z,100994.42
2023-11-30T13:13:37.909Z,100993.50
2023-11-30T13:16:11.097Z,100994.34
2023-11-30T13:18:40.290Z,100993.94
2023-11-30T13:21:09.297Z,100995.95
2023-11-30T13:23:37.525Z,100996.04
2023-11-30T13:26:06.112Z,101004.98
2023-11-30T13:28:40.151Z,100994.80
2023-11-30T13:31:13.799Z,101009.75
2023-11-30T13:33:42.103Z,100996.05
2023-11-30T13:36:11.058Z,101001.02
2023-11-30T13:38:40.126Z,100997.40
2023-11-30T13:41:08.947Z,100990.11
2023-11-30T13:43:37.319Z,100990.11
2023-11-30T13:46:07.380Z,101003.59
2023-11-30T13:48:35.860Z,100995.02
2023-11-30T13:51:05.135Z,100996.73
2023-11-30T13:53:34.289Z,100989.96
2023-11-30T13:56:05.970Z,100994.35
2023-11-30T13:58:34.268Z,101003.48
2023-11-30T14:01:02.777Z,100997.91
2023-11-30T14:03:31.672Z,101004.38
2023-11-30T14:06:00.587Z,100991.76
2023-11-30T14:08:30.204Z,100990.59
2023-11-30T14:10:58.556Z,100997.17
2023-11-30T14:13:26.960Z,100992.36
2023-11-30T14:15:55.386Z,100987.18
2023-11-30T14:18:23.981Z,100988.76
2023-11-30T14:20:52.393Z,100986.77
2023-11-30T14:23:22.325Z,100994.05
2023-11-30T14:25:50.903Z,100991.52
2023-11-30T14:28:20.209Z,100984.27
2023-11-30T14:30:49.025Z,100984.55
2023-11-30T14:33:18.075Z,100978.27
2023-11-30T14:35:46.653Z,100973.14
2023-11-30T14:38:15.108Z,100970.68
2023-11-30T14:40:43.818Z,100973.48
2023-11-30T14:43:12.514Z,100969.33
2023-11-30T14:45:41.109Z,100963.36
2023-11-30T14:48:09.868Z,100964.38
2023-11-30T14:50:38.106Z,100956.95
2023-11-30T14:53:06.714Z,100947.56
2023-11-30T14:55:35.214Z,100944.09
2023-11-30T14:58:05.000Z,100934.75
2023-11-30T15:00:35.257Z,100919.38
2023-11-30T15:03:09.922Z,100933.29
2023-11-30T15:05:40.286Z,100940.83
2023-11-30T15:08:08.944Z,100931.23
2023-11-30T15:10:37.172Z,100931.91
2023-11-30T15:13:05.717Z,100923.33
2023-11-30T15:15:33.976Z,100911.92
2023-11-30T15:18:02.465Z,100909.45
2023-11-30T15:20:31.209Z,100905.73
2023-11-30T15:22:59.636Z,100906.16
2023-11-30T15:25:27.977Z,100891.95
2023-11-30T15:27:56.323Z,100893.45
2023-11-30T15:30:25.931Z,100898.65
2023-11-30T15:32:54.493Z,100895.01
2023-11-30T15:35:22.786Z,100906.80
2023-11-30T15:37:52.996Z,100908.94
2023-11-30T15:40:22.598Z,100908.02
2023-11-30T15:42:52.522Z,100901.54
2023-11-30T15:45:24.977Z,100890.67
2023-11-30T15:47:54.432Z,100874.23
2023-11-30T15:50:22.954Z,100864.48
2023-11-30T15:52:52.450Z,100867.80
2023-11-30T15:55:20.901Z,100856.34
2023-11-30T15:57:49.857Z,100858.15
2023-11-30T16:00:21.390Z,100868.76
2023-11-30T16:02:50.501Z,100893.78
2023-11-30T16:05:19.213Z,100902.14
2023-11-30T16:07:47.392Z,100898.52
2023-11-30T16:10:15.909Z,100893.92
2023-11-30T16:12:44.315Z,100881.67
2023-11-30T16:15:13.037Z,100856.17
2023-11-30T16:17:41.598Z,100850.85
2023-11-30T16:20:12.001Z,100855.33
2023-11-30T16:22:41.985Z,100843.20
2023-11-30T16:25:12.693Z,100833.98
2023-11-30T16:27:45.178Z,100821.71
2023-11-30T16:30:14.335Z,100829.08
2023-11-30T16:32:42.885Z,100828.73
2023-11-30T16:35:13.632Z,100817.06
2023-11-30T16:37:42.047Z,100820.01
2023-11-30T16:40:12.085Z,100830.17
2023-11-30T16:42:40.420Z,100821.14
2023-11-30T16:45:09.314Z,100808.52
2023-11-30T16:47:39.562Z,100807.05
2023-11-30T16:50:10.069Z,100812.13
2023-11-30T16:52:38.666Z,100815.02
2023-11-30T16:55:07.876Z,100808.41
2023-11-30T16:57:37.324Z,100798.03
2023-11-30T17:00:07.538Z,100782.25
2023-11-30T17:02:36.383Z,100772.75
2023-11-30T17:05:05.274Z,100755.98
2023-11-30T17:07:33.508Z,100750.52
2023-11-30T17:10:01.776Z,100741.64
2023-11-30T17:12:30.354Z,100732.36
2023-11-30T17:14:58.940Z,100735.79
2023-11-30T17:17:27.405Z,100739.97
2023-11-30T17:19:55.843Z,100741.79
2023-11-30T17:22:24.253Z,100738.02
2023-11-30T17:24:53.746Z,100739.54
2023-11-30T17:27:23.423Z,100741.19
2023-11-30T17:29:51.803Z,100730.23
2023-11-30T17:32:20.145Z,100718.09
2023-11-30T17:34:48.967Z,100712.76
2023-11-30T17:37:17.772Z,100706.17
2023-11-30T17:39:45.930Z,100709.80
2023-11-30T17:42:14.415Z,100701.28
2023-11-30T17:44:42.771Z,100694.66
2023-11-30T17:47:16.439Z,100688.11
2023-11-30T17:49:45.628Z,100686.04
2023-11-30T17:52:14.664Z,100671.71
2023-11-30T17:54:42.971Z,100663.16
2023-11-30T17:57:11.341Z,100647.27
2023-11-30T17:59:39.846Z,100645.69
2023-11-30T18:02:08.257Z,100646.59
2023-11-30T18:04:36.447Z,100640.58
2023-11-30T18:07:08.731Z,100641.05
2023-11-30T18:09:36.947Z,100632.20
2023-11-30T18:12:06.704Z,100630.55
2023-11-30T18:14:35.104Z,100640.57
2023-11-30T18:17:05.804Z,100634.93
2023-11-30T18:19:34.083Z,100639.43
2023-11-30T18:22:02.278Z,100637.84
2023-11-30T18:24:31.717Z,100632.80
2023-11-30T18:27:03.860Z,100628.54
2023-11-30T18:29:32.607Z,100632.77
2023-11-30T18:32:01.773Z,100625.98
2023-11-30T18:34:30.097Z,100615.44
2023-11-30T18:36:58.576Z,100615.85
2023-11-30T18:39:26.994Z,100609.45
2023-11-30T18:41:56.480Z,100600.55
2023-11-30T18:44:27.284Z,100596.05
2023-11-30T18:46:56.502Z,100598.45
2023-11-30T18:49:25.640Z,100601.19
2023-11-30T18:51:54.030Z,100607.66
2023-11-30T18:54:22.314Z,100602.30
2023-11-30T18:56:50.957Z,100592.63
2023-11-30T18:59:19.280Z,100596.20
2023-11-30T19:01:48.780Z,100588.52
2023-11-30T19:04:17.637Z,100588.17
2023-11-30T19:06:45.965Z,100576.44
2023-11-30T19:09:14.512Z,100569.29
2023-11-30T19:11:46.730Z,100554.29
2023-11-30T19:14:15.065Z,100558.27
2023-11-30T19:16:44.960Z,100561.23
2023-11-30T19:19:13.669Z,100555.69
2023-11-30T19:21:43.575Z,100558.20
2023-11-30T19:24:15.339Z,100561.59
2023-11-30T19:26:45.133Z,100560.01
2023-11-30T19:29:16.660Z,100557.02
2023-11-30T19:31:47.117Z,100552.46
2023-11-30T19:34:16.158Z,100547.24
2023-11-30T19:36:44.374Z,100546.11
2023-11-30T19:39:15.039Z,100539.52
2023-11-30T19:41:44.127Z,100534.80
2023-11-30T19:44:14.472Z,100533.77
2023-11-30T19:46:48.331Z,100520.02
2023-11-30T19:49:16.717Z,100510.77
2023-11-30T19:51:45.071Z,100503.55
2023-11-30T19:54:13.498Z,100495.63
2023-11-30T19:56:42.454Z,100495.71
2023-11-30T19:59:10.809Z,100489.75
2023-11-30T20:01:39.041Z,100488.66
2023-11-30T20:04:07.594Z,100485.39
2023-11-30T20:06:38.070Z,100479.85
2023-11-30T20:09:06.421Z,100480.83
2023-11-30T20:11:36.159Z,100469.95
2023-11-30T20:14:04.930Z,100462.91
2023-11-30T20:16:33.500Z,100461.39
2023-11-30T20:19:02.120Z,100466.20
2023-11-30T20:21:30.580Z,100460.92
2023-11-30T20:23:59.439Z,100468.96
2023-11-30T20:26:27.744Z,100464.96
2023-11-30T20:28:56.123Z,100464.38
2023-11-30T20:31:24.589Z,100458.02
2023-11-30T20:33:53.046Z,100452.56
2023-11-30T20:36:22.822Z,100449.73
2023-11-30T20:38:51.865Z,100450.13
2023-11-30T20:41:20.175Z,100448.69
2023-11-30T20:43:50.381Z,100449.23
2023-11-30T20:46:20.749Z,100446.81
2023-11-30T20:48:49.992Z,100441.26
2023-11-30T20:51:20.000Z,100435.41
2023-11-30T20:53:48.460Z,100443.45
2023-11-30T20:56:16.626Z,100433.06
2023-11-30T20:58:46.834Z,100428.95
2023-11-30T21:01:17.363Z,100424.88
2023-11-30T21:03:45.878Z,100412.48
2023-11-30T21:06:14.399Z,100403.89
2023-11-30T21:08:42.722Z,100403.41
2023-11-30T21:11:11.716Z,100403.27
2023-11-30T21:13:39.853Z,100405.28
2023-11-30T21:16:09.265Z,100393.32
2023-11-30T21:18:38.114Z,100378.03
2023-11-30T21:21:07.367Z,100380.52
2023-11-30T21:23:35.548Z,100384.33
2023-11-30T21:26:04.405Z,100380.26
2023-11-30T21:28:32.585Z,100375.61
2023-11-30T21:31:01.181Z,100359.67
2023-11-30T21:33:31.233Z,100350.44
2023-11-30T21:36:00.602Z,100345.77
2023-11-30T21:38:28.861Z,100342.94
2023-11-30T21:40:57.506Z,100335.04
2023-11-30T21:43:26.588Z,100332.75
2023-11-30T21:45:55.171Z,100324.67
2023-11-30T21:48:24.032Z,100313.87
2023-11-30T21:50:53.268Z,100319.75
2023-11-30T21:53:21.950Z,100314.89
2023-11-30T21:55:50.234Z,100306.05
2023-11-30T21:58:19.842Z,100303.36
2023-11-30T22:00:48.408Z,100307.23
2023-11-30T22:03:18.716Z,100301.66
2023-11-30T22:05:48.680Z,100287.40
2023-11-30T22:08:17.198Z,100284.84
2023-11-30T22:10:45.952Z,100281.98
2023-11-30T22:13:14.598Z,100286.98
2023-11-30T22:15:43.379Z,100290.97
2023-11-30T22:18:11.647Z,100287.98
2023-11-30T22:20:45.012Z,100280.67
2023-11-30T22:23:14.484Z,100276.15
2023-11-30T22:25:42.638Z,100273.07
2023-11-30T22:28:11.067Z,100274.60
2023-11-30T22:30:39.863Z,100264.80
2023-11-30T22:33:08.549Z,100259.42
2023-11-30T22:35:36.762Z,100256.15
2023-11-30T22:38:05.079Z,100255.77
2023-11-30T22:40:33.548Z,100254.33
2023-11-30T22:43:04.290Z,100251.70
2023-11-30T22:45:33.466Z,100244.65
2023-11-30T22:48:01.800Z,100233.31
2023-11-30T22:50:30.307Z,100221.13
2023-11-30T22:52:59.002Z,100212.04
2023-11-30T22:55:27.618Z,100203.83
2023-11-30T22:57:56.132Z,100203.35
2023-11-30T23:00:25.644Z,100199.31
2023-11-30T23:02:54.638Z,100186.77
2023-11-30T23:05:23.623Z,100199.40
2023-11-30T23:07:52.234Z,100178.45
2023-11-30T23:10:22.312Z,100173.62
2023-11-30T23:12:51.511Z,100161.33
2023-11-30T23:15:19.838Z,100162.21
2023-11-30T23:17:48.453Z,100151.01
2023-11-30T23:20:16.970Z,100135.92
2023-11-30T23:22:45.136Z,100130.73
2023-11-30T23:25:13.731Z,100131.79
2023-11-30T23:27:42.169Z,100140.31
2023-11-30T23:30:10.837Z,100147.21
2023-11-30T23:32:39.106Z,100130.34
2023-11-30T23:35:08.513Z,100117.48
2023-11-30T23:37:36.746Z,100129.88
2023-11-30T23:40:06.255Z,100135.57
2023-11-30T23:42:34.551Z,100133.13
2023-11-30T23:45:04.607Z,100119.70
2023-11-30T23:47:32.969Z,100104.16
2023-11-30T23:50:01.387Z,100093.02
2023-11-30T23:52:29.686Z,100089.38
2023-11-30T23:54:58.030Z,100094.60
2023-11-30T23:57:26.291Z,100096.20
2023-11-30T23:59:55.351Z,100102.38
